Time;durP1;ratioP1;P1;durP2;ratioP2;P2;SDS_P1;SDS_P2;PMS_P1;PMS_P2;Temp;Humidity;BMP_temperature;BMP_pressure;BME280_temperature;BME280_humidity;BME280_pressure;Samples;Min_cycle;Max_cycle;Signal;HPM_P1;HPM_P2
2023/01/23 00:01:04;;;;;;;9.27;4.78;;;;;;;;;;7394960;19;20003;-79
2023/01/23 00:03:30;;;;;;;9.10;4.57;;;;;;;;;;7393616;19;20006;-77
2023/01/23 00:06:00;;;;;;;10.05;4.47;;;;;;;;;;7395688;19;20444;-76
2023/01/23 00:08:26;;;;;;;6.82;3.63;;;;;;;;;;7389242;19;20342;-78
2023/01/23 00:10:52;;;;;;;11.95;5.28;;;;;;;;;;7392503;19;20458;-77
2023/01/23 00:13:17;;;;;;;9.60;4.68;;;;;;;;;;7388431;19;20002;-78
2023/01/23 00:15:43;;;;;;;11.10;5.05;;;;;;;;;;7392926;19;20433;-76
2023/01/23 00:18:08;;;;;;;8.10;3.92;;;;;;;;;;7394552;19;19995;-77
2023/01/23 00:20:36;;;;;;;10.23;4.78;;;;;;;;;;7394579;19;20015;-77
2023/01/23 00:23:01;;;;;;;9.63;5.05;;;;;;;;;;7393349;19;20097;-77
2023/01/23 00:25:27;;;;;;;8.07;4.10;;;;;;;;;;7392865;19;20465;-78
2023/01/23 00:27:52;;;;;;;12.02;5.40;;;;;;;;;;7393563;19;20022;-77
2023/01/23 00:30:17;;;;;;;10.13;5.00;;;;;;;;;;7392448;19;20810;-77
2023/01/23 00:32:43;;;;;;;9.88;4.72;;;;;;;;;;7393302;19;20006;-77
2023/01/23 00:35:08;;;;;;;8.77;4.75;;;;;;;;;;7394235;19;19998;-77
2023/01/23 00:37:33;;;;;;;10.23;4.78;;;;;;;;;;7393805;19;19998;-79
2023/01/23 00:39:59;;;;;;;10.65;4.88;;;;;;;;;;7391675;19;20054;-78
2023/01/23 00:42:24;;;;;;;9.75;4.40;;;;;;;;;;7394277;19;20018;-78
2023/01/23 00:44:50;;;;;;;7.45;3.65;;;;;;;;;;7390873;19;20437;-78
2023/01/23 00:47:15;;;;;;;7.05;3.95;;;;;;;;;;7391538;19;19998;-78
2023/01/23 00:49:40;;;;;;;9.43;5.13;;;;;;;;;;7394626;19;19999;-78
2023/01/23 00:52:06;;;;;;;9.88;5.22;;;;;;;;;;7391477;19;20005;-78
2023/01/23 00:54:31;;;;;;;13.05;5.18;;;;;;;;;;7392177;19;20011;-77
2023/01/23 00:56:56;;;;;;;3.72;2.38;;;;;;;;;;7392819;19;19999;-77
2023/01/23 00:59:22;;;;;;;11.48;5.30;;;;;;;;;;7391244;19;20006;-76
2023/01/23 01:01:48;;;;;;;10.88;5.53;;;;;;;;;;7391865;19;19999;-77
2023/01/23 01:04:13;;;;;;;9.38;4.43;;;;;;;;;;7390042;19;20019;-77
2023/01/23 01:06:38;;;;;;;9.05;4.43;;;;;;;;;;7392335;19;19999;-77
2023/01/23 01:09:04;;;;;;;8.05;4.38;;;;;;;;;;7392696;19;20765;-77
2023/01/23 01:11:30;;;;;;;11.02;5.07;;;;;;;;;;7393135;19;20475;-77
2023/01/23 01:13:55;;;;;;;11.30;4.85;;;;;;;;;;7390200;19;20007;-77
2023/01/23 01:16:23;;;;;;;11.13;5.47;;;;;;;;;;7391924;19;19998;-77
2023/01/23 01:18:48;;;;;;;10.32;4.70;;;;;;;;;;7391497;19;20006;-77
2023/01/23 01:21:14;;;;;;;11.15;5.18;;;;;;;;;;7391631;19;20307;-77
2023/01/23 01:23:40;;;;;;;8.00;3.95;;;;;;;;;;7389819;19;20082;-77
2023/01/23 01:26:06;;;;;;;9.23;4.32;;;;;;;;;;7389867;19;19999;-77
2023/01/23 01:28:34;;;;;;;11.80;5.18;;;;;;;;;;7391894;19;19995;-77
2023/01/23 01:31:11;;;;;;;11.00;5.63;;;;;;;;;;7391720;19;20023;-77
2023/01/23 01:33:38;;;;;;;9.02;5.45;;;;;;;;;;7390596;19;20112;-78
2023/01/23 01:36:10;;;;;;;10.10;4.43;;;;;;;;;;7391439;19;20518;-78
2023/01/23 01:38:36;;;;;;;10.95;5.10;;;;;;;;;;7390598;19;20002;-77
2023/01/23 01:41:01;;;;;;;10.48;4.85;;;;;;;;;;7391328;19;20005;-77
2023/01/23 01:43:27;;;;;;;10.48;4.93;;;;;;;;;;7389710;19;19998;-77
2023/01/23 01:46:13;;;;;;;10.60;4.72;;;;;;;;;;7389402;19;20023;-77
2023/01/23 01:48:46;;;;;;;11.80;5.38;;;;;;;;;;7391318;19;20007;-77
2023/01/23 01:51:16;;;;;;;12.80;4.97;;;;;;;;;;7391875;19;20123;-77
2023/01/23 01:53:43;;;;;;;11.10;5.28;;;;;;;;;;7389781;19;19998;-77
2023/01/23 01:56:11;;;;;;;13.10;5.43;;;;;;;;;;7393058;19;20002;-76
2023/01/23 01:58:37;;;;;;;8.98;3.78;;;;;;;;;;7391001;19;20002;-78
2023/01/23 02:01:03;;;;;;;9.40;4.40;;;;;;;;;;7392620;19;20106;-77
2023/01/23 02:03:29;;;;;;;11.02;5.07;;;;;;;;;;7391228;19;20003;-78
2023/01/23 02:05:54;;;;;;;11.25;4.90;;;;;;;;;;7392392;19;20002;-77
2023/01/23 02:08:34;;;;;;;8.63;4.65;;;;;;;;;;7393579;19;20005;-77
2023/01/23 02:11:02;;;;;;;9.10;4.57;;;;;;;;;;7396560;19;20030;-77
2023/01/23 02:13:34;;;;;;;10.00;5.07;;;;;;;;;;7388138;19;20536;-76
2023/01/23 02:16:09;;;;;;;11.13;5.20;;;;;;;;;;7391910;19;20355;-76
2023/01/23 02:18:37;;;;;;;10.82;5.15;;;;;;;;;;7392553;19;20002;-78
2023/01/23 02:21:06;;;;;;;10.80;5.35;;;;;;;;;;7392867;19;20067;-77
2023/01/23 02:23:43;;;;;;;11.00;4.38;;;;;;;;;;7389522;19;20003;-78
2023/01/23 02:26:23;;;;;;;10.27;4.88;;;;;;;;;;7390850;19;20003;-78
2023/01/23 02:28:51;;;;;;;9.38;4.28;;;;;;;;;;7391026;19;20372;-78
2023/01/23 02:31:17;;;;;;;7.00;4.25;;;;;;;;;;7390788;19;20100;-77
2023/01/23 02:33:53;;;;;;;9.48;4.97;;;;;;;;;;7388637;19;20026;-76
2023/01/23 02:36:22;;;;;;;10.65;4.95;;;;;;;;;;7390032;19;19999;-77
2023/01/23 02:38:51;;;;;;;10.15;4.68;;;;;;;;;;7389421;19;20498;-78
2023/01/23 02:41:21;;;;;;;10.88;5.35;;;;;;;;;;7390569;19;19998;-77
2023/01/23 02:43:49;;;;;;;14.82;5.28;;;;;;;;;;7388752;19;20054;-78
2023/01/23 02:46:16;;;;;;;8.80;4.53;;;;;;;;;;7389780;19;20358;-78
2023/01/23 02:48:43;;;;;;;10.05;4.97;;;;;;;;;;7393691;19;20685;-78
2023/01/23 02:51:08;;;;;;;10.45;4.95;;;;;;;;;;7389595;19;20058;-77
2023/01/23 02:53:34;;;;;;;8.48;4.35;;;;;;;;;;7386737;19;20032;-78
2023/01/23 02:55:59;;;;;;;10.52;4.82;;;;;;;;;;7393415;19;20005;-78
2023/01/23 03:01:08;;;;;;;9.45;5.07;;;;;;;;;;7389030;19;20009;-78
2023/01/23 03:03:34;;;;;;;9.48;5.15;;;;;;;;;;7387149;19;20006;-78
2023/01/23 03:06:02;;;;;;;9.27;4.72;;;;;;;;;;7388639;19;20002;-78
2023/01/23 03:08:33;;;;;;;11.57;4.63;;;;;;;;;;7389482;19;20003;-76
2023/01/23 03:10:59;;;;;;;12.05;4.78;;;;;;;;;;7393243;19;20353;-78
2023/01/23 03:13:25;;;;;;;15.13;5.10;;;;;;;;;;7385580;19;19994;-78
2023/01/23 03:15:53;;;;;;;11.45;4.72;;;;;;;;;;7388316;19;20013;-77
2023/01/23 03:18:19;;;;;;;8.43;4.60;;;;;;;;;;7387497;19;20096;-78
2023/01/23 03:20:44;;;;;;;10.88;4.70;;;;;;;;;;7388506;19;20504;-77
2023/01/23 03:23:10;;;;;;;8.85;4.00;;;;;;;;;;7386951;19;20457;-78
2023/01/23 03:25:35;;;;;;;8.93;3.33;;;;;;;;;;7385593;19;20086;-77
2023/01/23 03:28:01;;;;;;;8.25;4.28;;;;;;;;;;7387781;19;19999;-77
2023/01/23 03:30:26;;;;;;;10.60;4.45;;;;;;;;;;7388477;19;20010;-77
2023/01/23 03:32:51;;;;;;;8.98;4.55;;;;;;;;;;7386737;19;20078;-78
2023/01/23 03:35:21;;;;;;;9.07;4.65;;;;;;;;;;7385552;19;19994;-78
2023/01/23 03:37:48;;;;;;;10.68;5.15;;;;;;;;;;7387905;19;19998;-78
2023/01/23 03:43:07;;;;;;;10.15;4.57;;;;;;;;;;7386518;19;20103;-75
2023/01/23 03:45:32;;;;;;;12.25;4.85;;;;;;;;;;7386249;19;20014;-75
2023/01/23 03:47:58;;;;;;;9.82;4.65;;;;;;;;;;7387281;19;19998;-75
2023/01/23 03:50:23;;;;;;;9.57;4.70;;;;;;;;;;7387824;19;20050;-76
2023/01/23 03:52:49;;;;;;;6.93;3.45;;;;;;;;;;7386626;19;20123;-76
2023/01/23 03:55:14;;;;;;;6.20;2.80;;;;;;;;;;7385542;19;19991;-75
2023/01/23 03:57:39;;;;;;;5.38;2.67;;;;;;;;;;7387273;19;20006;-74
2023/01/23 04:00:05;;;;;;;9.20;4.82;;;;;;;;;;7389547;19;19995;-77
2023/01/23 04:02:31;;;;;;;9.80;4.10;;;;;;;;;;7387389;19;20013;-77
2023/01/23 04:04:57;;;;;;;12.00;5.50;;;;;;;;;;7385228;19;20003;-76
2023/01/23 04:07:22;;;;;;;7.25;3.13;;;;;;;;;;7385938;19;20029;-76
2023/01/23 04:09:47;;;;;;;11.80;5.25;;;;;;;;;;7391474;19;20019;-74
2023/01/23 04:12:13;;;;;;;10.50;4.55;;;;;;;;;;7386709;19;19998;-76
2023/01/23 04:14:39;;;;;;;9.75;5.18;;;;;;;;;;7383309;19;20237;-75
2023/01/23 04:17:07;;;;;;;10.30;4.63;;;;;;;;;;7386834;19;20114;-75
2023/01/23 04:19:33;;;;;;;8.70;4.15;;;;;;;;;;7385599;19;19995;-75
2023/01/23 04:21:59;;;;;;;9.75;4.10;;;;;;;;;;7385342;19;20003;-75
2023/01/23 04:24:25;;;;;;;9.90;5.28;;;;;;;;;;7385047;19;19998;-74
2023/01/23 04:26:50;;;;;;;11.38;4.80;;;;;;;;;;7385303;19;19994;-76
2023/01/23 04:29:16;;;;;;;13.25;5.03;;;;;;;;;;7386763;19;20009;-76
2023/01/23 04:31:41;;;;;;;12.30;5.32;;;;;;;;;;7385402;19;20024;-76
2023/01/23 04:34:06;;;;;;;9.95;5.53;;;;;;;;;;7384894;19;20358;-75
2023/01/23 04:36:32;;;;;;;11.00;5.57;;;;;;;;;;7388663;19;20453;-76
2023/01/23 04:38:58;;;;;;;11.27;5.13;;;;;;;;;;7392515;19;20033;-75
2023/01/23 04:41:26;;;;;;;9.18;4.85;;;;;;;;;;7394077;19;20487;-75
2023/01/23 04:43:51;;;;;;;10.18;5.18;;;;;;;;;;7389861;19;20467;-75
2023/01/23 04:46:16;;;;;;;9.57;4.50;;;;;;;;;;7394493;19;19998;-75
2023/01/23 04:48:42;;;;;;;12.00;5.95;;;;;;;;;;7393383;19;20002;-74
2023/01/23 04:51:07;;;;;;;12.32;5.45;;;;;;;;;;7393367;19;20106;-74
2023/01/23 04:53:33;;;;;;;12.77;4.10;;;;;;;;;;7391494;19;20002;-76
2023/01/23 04:55:58;;;;;;;10.18;4.82;;;;;;;;;;7396561;19;19987;-74
2023/01/23 04:58:23;;;;;;;8.38;4.70;;;;;;;;;;7392408;19;20007;-76
2023/01/23 05:00:49;;;;;;;9.55;4.43;;;;;;;;;;7390901;19;20002;-74
2023/01/23 05:03:15;;;;;;;9.40;4.65;;;;;;;;;;7391768;19;20350;-76
2023/01/23 05:05:41;;;;;;;12.65;5.85;;;;;;;;;;7396711;19;20002;-75
2023/01/23 05:08:07;;;;;;;8.48;4.70;;;;;;;;;;7392567;19;19998;-74
2023/01/23 05:10:32;;;;;;;7.70;4.25;;;;;;;;;;7390502;19;19998;-75
2023/01/23 05:12:58;;;;;;;8.68;4.13;;;;;;;;;;7392092;19;20002;-75
2023/01/23 05:15:23;;;;;;;9.65;4.50;;;;;;;;;;7390753;19;20013;-75
2023/01/23 05:17:48;;;;;;;8.52;4.03;;;;;;;;;;7392204;19;19999;-74
2023/01/23 05:20:14;;;;;;;8.80;4.28;;;;;;;;;;7387994;19;20065;-75
2023/01/23 05:22:51;;;;;;;7.97;4.32;;;;;;;;;;7391356;19;20087;-77
2023/01/23 05:25:18;;;;;;;9.35;3.72;;;;;;;;;;7391042;19;20013;-74
2023/01/23 05:27:43;;;;;;;8.13;4.38;;;;;;;;;;7390950;19;19999;-75
2023/01/23 05:30:09;;;;;;;10.93;4.53;;;;;;;;;;7393028;19;20358;-75
2023/01/23 05:32:35;;;;;;;8.57;4.47;;;;;;;;;;7396065;19;20002;-74
2023/01/23 05:35:00;;;;;;;7.75;4.07;;;;;;;;;;7389877;19;19994;-75
2023/01/23 05:37:25;;;;;;;8.73;4.13;;;;;;;;;;7391118;19;19994;-75
2023/01/23 05:39:51;;;;;;;9.48;4.22;;;;;;;;;;7389499;19;20010;-75
2023/01/23 05:42:16;;;;;;;6.10;3.20;;;;;;;;;;7388848;19;20015;-76
2023/01/23 05:44:42;;;;;;;6.88;3.78;;;;;;;;;;7387219;19;20685;-75
2023/01/23 05:47:07;;;;;;;6.50;3.25;;;;;;;;;;7389475;19;20472;-77
2023/01/23 05:49:32;;;;;;;9.68;4.38;;;;;;;;;;7392194;19;20002;-75
2023/01/23 05:51:58;;;;;;;7.93;4.03;;;;;;;;;;7395318;19;20078;-76
2023/01/23 05:54:23;;;;;;;7.85;3.40;;;;;;;;;;7393754;19;19994;-74
2023/01/23 05:56:48;;;;;;;9.63;3.70;;;;;;;;;;7396896;19;20007;-74
2023/01/23 05:59:14;;;;;;;7.13;3.75;;;;;;;;;;7391444;19;19998;-76
2023/01/23 06:01:39;;;;;;;8.80;3.30;;;;;;;;;;7393318;19;19998;-74
2023/01/23 06:04:04;;;;;;;7.43;3.97;;;;;;;;;;7389321;19;20009;-76
2023/01/23 06:06:29;;;;;;;5.82;3.25;;;;;;;;;;7387739;19;20002;-75
2023/01/23 06:08:58;;;;;;;7.07;3.65;;;;;;;;;;7387570;19;20002;-76
2023/01/23 06:11:23;;;;;;;9.40;3.80;;;;;;;;;;7385404;19;20460;-76
2023/01/23 06:13:48;;;;;;;9.48;3.78;;;;;;;;;;7386112;19;20041;-75
2023/01/23 06:16:14;;;;;;;6.88;3.55;;;;;;;;;;7387303;19;19995;-76
2023/01/23 06:18:39;;;;;;;5.65;3.10;;;;;;;;;;7387273;19;20389;-77
2023/01/23 06:21:05;;;;;;;8.85;3.85;;;;;;;;;;7389144;19;20054;-75
2023/01/23 06:23:30;;;;;;;8.45;3.38;;;;;;;;;;7388789;19;20009;-75
2023/01/23 06:25:58;;;;;;;12.18;4.20;;;;;;;;;;7394633;19;20413;-74
2023/01/23 06:28:24;;;;;;;6.95;3.50;;;;;;;;;;7394272;19;20026;-75
2023/01/23 06:30:49;;;;;;;6.18;3.30;;;;;;;;;;7390933;19;20107;-77
2023/01/23 06:33:14;;;;;;;5.93;3.50;;;;;;;;;;7393127;19;19998;-76
2023/01/23 06:35:39;;;;;;;6.28;3.05;;;;;;;;;;7388184;19;20350;-75
2023/01/23 06:38:05;;;;;;;6.35;3.40;;;;;;;;;;7386421;19;20058;-77
2023/01/23 06:40:30;;;;;;;8.55;4.10;;;;;;;;;;7385567;19;20291;-75
2023/01/23 06:42:55;;;;;;;7.53;3.97;;;;;;;;;;7384651;19;19994;-76
2023/01/23 06:45:21;;;;;;;8.55;3.95;;;;;;;;;;7385657;19;20006;-77
2023/01/23 06:47:46;;;;;;;7.78;4.10;;;;;;;;;;7385365;19;19990;-75
2023/01/23 06:50:11;;;;;;;8.43;3.95;;;;;;;;;;7388871;19;20062;-74
2023/01/23 06:52:36;;;;;;;7.00;3.70;;;;;;;;;;7390985;19;19994;-76
2023/01/23 06:55:02;;;;;;;6.15;3.22;;;;;;;;;;7390856;19;20026;-76
2023/01/23 06:57:27;;;;;;;6.47;3.42;;;;;;;;;;7389398;19;20078;-76
2023/01/23 06:59:53;;;;;;;8.50;3.45;;;;;;;;;;7389703;19;19991;-75
2023/01/23 07:02:18;;;;;;;8.02;3.92;;;;;;;;;;7391094;19;19995;-75
2023/01/23 07:04:43;;;;;;;7.43;3.90;;;;;;;;;;7390995;19;20001;-75
2023/01/23 07:07:09;;;;;;;8.57;4.07;;;;;;;;;;7393134;19;19994;-75
2023/01/23 07:09:34;;;;;;;8.25;3.35;;;;;;;;;;7367966;19;20002;-75
2023/01/23 07:11:59;;;;;;;6.18;3.25;;;;;;;;;;7392393;19;20002;-76
2023/01/23 07:14:26;;;;;;;9.35;3.50;;;;;;;;;;7391075;19;19994;-76
2023/01/23 07:16:53;;;;;;;9.38;4.40;;;;;;;;;;7389365;19;20002;-76
2023/01/23 07:19:18;;;;;;;8.35;4.47;;;;;;;;;;7388824;19;20002;-76
2023/01/23 07:21:46;;;;;;;9.25;4.55;;;;;;;;;;7390159;19;20054;-76
2023/01/23 07:24:11;;;;;;;12.50;4.88;;;;;;;;;;7389674;19;20478;-76
2023/01/23 07:26:38;;;;;;;9.30;4.60;;;;;;;;;;7388716;19;20020;-76
2023/01/23 07:29:07;;;;;;;10.18;4.85;;;;;;;;;;7388016;19;19990;-76
2023/01/23 07:31:34;;;;;;;10.88;4.68;;;;;;;;;;7394102;19;20404;-76
2023/01/23 07:34:00;;;;;;;12.93;4.53;;;;;;;;;;7395631;19;20038;-76
2023/01/23 07:36:29;;;;;;;9.23;4.50;;;;;;;;;;7392855;19;20002;-76
2023/01/23 07:38:54;;;;;;;8.80;4.32;;;;;;;;;;7389576;19;19994;-75
2023/01/23 07:41:20;;;;;;;8.55;3.80;;;;;;;;;;7391566;19;20054;-75
2023/01/23 07:43:45;;;;;;;6.97;4.05;;;;;;;;;;7390120;19;20002;-75
2023/01/23 07:46:11;;;;;;;7.78;4.18;;;;;;;;;;7391194;19;20002;-76
2023/01/23 07:48:37;;;;;;;10.02;4.93;;;;;;;;;;7391674;19;20488;-75
2023/01/23 07:51:03;;;;;;;8.63;4.10;;;;;;;;;;7390768;19;19998;-76
2023/01/23 07:53:28;;;;;;;7.47;4.03;;;;;;;;;;7386651;19;20002;-76
2023/01/23 07:55:53;;;;;;;14.25;4.72;;;;;;;;;;7388760;19;20383;-76
2023/01/23 07:58:19;;;;;;;8.20;4.47;;;;;;;;;;7388748;19;20029;-76
2023/01/23 08:00:44;;;;;;;6.13;3.08;;;;;;;;;;7390468;19;19991;-76
2023/01/23 08:03:10;;;;;;;7.45;3.63;;;;;;;;;;7387599;19;20005;-76
2023/01/23 08:05:36;;;;;;;8.88;4.70;;;;;;;;;;7385263;19;20078;-75
2023/01/23 08:08:01;;;;;;;8.50;4.47;;;;;;;;;;7388603;19;19990;-76
2023/01/23 08:10:27;;;;;;;14.50;5.00;;;;;;;;;;7391658;19;20002;-75
2023/01/23 08:12:52;;;;;;;7.72;4.22;;;;;;;;;;7392258;19;20002;-77
2023/01/23 08:15:17;;;;;;;9.05;4.55;;;;;;;;;;7392796;19;19991;-76
2023/01/23 08:17:43;;;;;;;9.80;4.00;;;;;;;;;;7398525;19;20003;-76
2023/01/23 08:20:09;;;;;;;10.02;4.38;;;;;;;;;;7396155;19;19991;-76
2023/01/23 08:22:36;;;;;;;8.20;5.38;;;;;;;;;;7397990;19;19999;-76
2023/01/23 08:25:02;;;;;;;10.05;4.35;;;;;;;;;;7395580;19;20070;-76
2023/01/23 08:27:27;;;;;;;6.70;3.78;;;;;;;;;;7396432;19;20018;-76
2023/01/23 08:29:52;;;;;;;8.80;4.72;;;;;;;;;;7395231;19;20062;-75
2023/01/23 08:32:18;;;;;;;8.95;3.67;;;;;;;;;;7398370;19;19998;-76
2023/01/23 08:34:43;;;;;;;12.00;4.80;;;;;;;;;;7392750;19;20039;-76
2023/01/23 08:37:08;;;;;;;7.20;3.47;;;;;;;;;;7396025;19;20006;-76
2023/01/23 08:39:34;;;;;;;9.18;2.97;;;;;;;;;;7394373;19;20013;-76
2023/01/23 08:41:59;;;;;;;5.15;2.75;;;;;;;;;;7397275;19;19999;-76
2023/01/23 08:44:25;;;;;;;8.95;3.60;;;;;;;;;;7395560;19;20360;-76
2023/01/23 08:46:50;;;;;;;8.45;3.65;;;;;;;;;;7395612;19;20096;-75
2023/01/23 08:49:18;;;;;;;6.43;3.45;;;;;;;;;;7395599;19;20059;-74
2023/01/23 08:51:43;;;;;;;7.22;3.95;;;;;;;;;;7393252;19;20468;-74
2023/01/23 08:54:09;;;;;;;7.25;4.15;;;;;;;;;;7394902;19;20019;-74
2023/01/23 08:56:34;;;;;;;7.47;3.78;;;;;;;;;;7390764;19;20368;-73
2023/01/23 08:58:59;;;;;;;8.60;4.63;;;;;;;;;;7394396;19;20002;-74
2023/01/23 09:01:26;;;;;;;9.48;4.68;;;;;;;;;;7394740;19;20342;-73
2023/01/23 09:03:51;;;;;;;6.75;3.42;;;;;;;;;;7390825;19;20373;-74
2023/01/23 09:06:20;;;;;;;9.50;4.72;;;;;;;;;;7394880;19;20019;-75
2023/01/23 09:08:46;;;;;;;8.18;3.97;;;;;;;;;;7392456;19;19998;-75
2023/01/23 09:11:12;;;;;;;5.95;3.15;;;;;;;;;;7393644;19;20022;-76
2023/01/23 09:13:38;;;;;;;9.70;4.43;;;;;;;;;;7392662;19;19998;-74
2023/01/23 09:16:04;;;;;;;8.48;4.63;;;;;;;;;;7394414;19;20051;-73
2023/01/23 09:18:30;;;;;;;8.43;4.32;;;;;;;;;;7393645;19;20466;-73
2023/01/23 09:20:57;;;;;;;8.85;4.30;;;;;;;;;;7392546;19;20028;-74
2023/01/23 09:23:22;;;;;;;8.10;4.18;;;;;;;;;;7393477;19;20010;-73
2023/01/23 09:25:48;;;;;;;9.23;4.47;;;;;;;;;;7400833;19;20058;-75
2023/01/23 09:28:13;;;;;;;7.57;3.47;;;;;;;;;;7401394;19;20097;-75
2023/01/23 09:30:39;;;;;;;9.07;4.65;;;;;;;;;;7399621;19;19990;-73
2023/01/23 09:33:05;;;;;;;9.70;4.20;;;;;;;;;;7389423;19;20007;-75
2023/01/23 09:35:31;;;;;;;8.93;4.50;;;;;;;;;;7391995;19;20018;-76
2023/01/23 09:37:59;;;;;;;9.93;4.10;;;;;;;;;;7390909;19;20002;-75
2023/01/23 09:40:47;;;;;;;8.65;4.25;;;;;;;;;;7391642;19;20117;-75
2023/01/23 09:43:17;;;;;;;7.82;3.50;;;;;;;;;;7394007;19;20047;-74
2023/01/23 09:45:50;;;;;;;10.88;3.63;;;;;;;;;;7390252;19;20003;-77
2023/01/23 09:48:21;;;;;;;9.95;4.38;;;;;;;;;;7392810;19;20010;-79
2023/01/23 09:50:54;;;;;;;7.85;4.30;;;;;;;;;;7388670;19;20007;-77
2023/01/23 09:53:23;;;;;;;11.93;4.78;;;;;;;;;;7387498;19;20002;-77
2023/01/23 09:56:13;;;;;;;9.50;4.45;;;;;;;;;;7391743;19;20002;-79
2023/01/23 09:58:45;;;;;;;10.00;4.57;;;;;;;;;;7390220;19;20002;-80
2023/01/23 10:01:12;;;;;;;9.55;5.40;;;;;;;;;;7392086;19;20306;-78
2023/01/23 10:03:38;;;;;;;9.63;5.22;;;;;;;;;;7390992;19;20013;-77
2023/01/23 10:06:07;;;;;;;8.50;4.10;;;;;;;;;;7393185;19;20356;-77
2023/01/23 10:08:48;;;;;;;13.35;4.97;;;;;;;;;;7390420;19;20003;-78
2023/01/23 10:11:34;;;;;;;9.83;4.63;;;;;;;;;;7392323;19;20500;-79
2023/01/23 10:14:05;;;;;;;12.80;4.90;;;;;;;;;;7387708;19;20793;-77
2023/01/23 10:16:57;;;;;;;11.73;5.03;;;;;;;;;;7391069;19;20002;-78
2023/01/23 10:19:51;;;;;;;13.02;4.80;;;;;;;;;;7390165;19;20003;-78
2023/01/23 10:22:22;;;;;;;8.30;4.28;;;;;;;;;;7393690;19;20002;-80
2023/01/23 10:24:52;;;;;;;;;;;;;;;;;;7387950;19;20002;-78
2023/01/23 10:27:22;;;;;;;8.23;4.57;;;;;;;;;;7390438;19;19918;-78
2023/01/23 10:29:55;;;;;;;9.05;3.88;;;;;;;;;;7391133;19;20018;-78
2023/01/23 10:32:24;;;;;;;9.77;5.20;;;;;;;;;;7391617;19;20002;-78
2023/01/23 10:35:14;;;;;;;9.07;4.03;;;;;;;;;;7388002;19;19994;-79
2023/01/23 10:38:00;;;;;;;11.70;5.18;;;;;;;;;;7391355;19;20548;-77
2023/01/23 10:43:19;;;;;;;9.32;4.70;;;;;;;;;;7391682;19;20400;-79
2023/01/23 10:45:46;;;;;;;5.80;2.80;;;;;;;;;;7389374;19;20006;-78
2023/01/23 10:48:39;;;;;;;10.30;4.30;;;;;;;;;;7391667;19;20372;-79
2023/01/23 10:51:27;;;;;;;13.40;4.85;;;;;;;;;;7390234;19;20015;-77
2023/01/23 10:54:06;;;;;;;8.27;3.83;;;;;;;;;;7389974;19;20372;-79
2023/01/23 10:56:33;;;;;;;8.23;5.07;;;;;;;;;;7388062;19;20003;-77
2023/01/23 10:59:00;;;;;;;9.25;4.75;;;;;;;;;;7391124;19;20002;-78
2023/01/23 11:01:29;;;;;;;11.60;5.35;;;;;;;;;;7387230;19;20015;-77
2023/01/23 11:03:54;;;;;;;11.05;4.78;;;;;;;;;;7385667;19;20006;-78
2023/01/23 11:06:24;;;;;;;11.93;4.95;;;;;;;;;;7389157;19;19999;-77
2023/01/23 11:08:59;;;;;;;13.25;4.20;;;;;;;;;;7387666;19;20006;-77
2023/01/23 11:11:30;;;;;;;10.35;5.38;;;;;;;;;;7383358;19;20500;-78
2023/01/23 11:14:11;;;;;;;8.23;3.65;;;;;;;;;;7385775;19;20033;-78
2023/01/23 11:16:37;;;;;;;9.93;4.47;;;;;;;;;;7384271;19;20020;-77
2023/01/23 11:19:05;;;;;;;10.25;4.57;;;;;;;;;;7387877;19;19995;-76
2023/01/23 11:21:36;;;;;;;11.13;4.68;;;;;;;;;;7389976;19;20003;-78
2023/01/23 11:24:20;;;;;;;8.35;4.43;;;;;;;;;;7389697;19;20030;-78
2023/01/23 11:26:46;;;;;;;11.13;4.68;;;;;;;;;;7388244;19;20021;-78
2023/01/23 11:29:20;;;;;;;10.68;4.18;;;;;;;;;;7391974;19;20066;-78
2023/01/23 11:31:46;;;;;;;8.02;3.50;;;;;;;;;;7392099;19;20073;-78
2023/01/23 11:34:14;;;;;;;9.35;4.20;;;;;;;;;;7387664;19;20007;-78
2023/01/23 11:37:05;;;;;;;12.23;4.05;;;;;;;;;;7387106;19;20030;-79
2023/01/23 11:39:43;;;;;;;5.88;2.97;;;;;;;;;;7388199;19;20019;-79
2023/01/23 11:42:12;;;;;;;7.85;3.75;;;;;;;;;;7389610;19;19998;-78
2023/01/23 11:44:40;;;;;;;9.38;4.05;;;;;;;;;;7385793;19;20002;-78
2023/01/23 11:47:27;;;;;;;8.05;3.05;;;;;;;;;;7395527;19;20471;-79
2023/01/23 11:50:01;;;;;;;9.48;4.65;;;;;;;;;;7402002;19;20027;-79
2023/01/23 11:52:33;;;;;;;13.05;5.10;;;;;;;;;;7401952;19;20017;-78
2023/01/23 11:55:01;;;;;;;10.40;4.28;;;;;;;;;;7400749;19;20015;-78
2023/01/23 11:58:13;;;;;;;14.88;4.30;;;;;;;;;;7404335;19;20127;-79
2023/01/23 12:01:01;;;;;;;6.18;3.42;;;;;;;;;;7390813;19;20015;-79
2023/01/23 12:03:45;;;;;;;7.18;4.07;;;;;;;;;;7394271;19;20297;-78
2023/01/23 12:06:20;;;;;;;13.35;4.72;;;;;;;;;;7397211;19;20003;-78
2023/01/23 12:08:52;;;;;;;10.23;4.65;;;;;;;;;;7394654;19;20003;-78
2023/01/23 12:11:21;;;;;;;6.82;3.80;;;;;;;;;;7395353;19;19999;-78
2023/01/23 12:13:52;;;;;;;6.68;3.45;;;;;;;;;;7395969;19;20012;-78
2023/01/23 12:16:51;;;;;;;5.47;3.03;;;;;;;;;;7396946;19;19998;-78
2023/01/23 12:19:41;;;;;;;6.43;3.28;;;;;;;;;;7392928;19;20025;-77
2023/01/23 12:22:34;;;;;;;8.60;3.75;;;;;;;;;;7396427;19;20006;-76
2023/01/23 12:25:09;;;;;;;8.02;4.32;;;;;;;;;;7394239;19;20381;-80
2023/01/23 12:27:38;;;;;;;8.77;4.00;;;;;;;;;;7396311;19;20031;-81
2023/01/23 12:30:29;;;;;;;7.45;3.83;;;;;;;;;;7396442;19;20074;-81
2023/01/23 12:33:04;;;;;;;9.95;4.38;;;;;;;;;;7394292;19;20023;-81
2023/01/23 12:36:00;;;;;;;7.70;3.95;;;;;;;;;;7393475;19;20002;-81
2023/01/23 12:38:59;;;;;;;6.05;3.40;;;;;;;;;;7393891;19;19999;-81
2023/01/23 12:41:35;;;;;;;10.65;3.88;;;;;;;;;;7395300;19;20028;-80
2023/01/23 12:44:10;;;;;;;8.55;4.25;;;;;;;;;;7391450;19;20003;-80
2023/01/23 12:46:50;;;;;;;9.10;3.97;;;;;;;;;;7391346;19;20003;-80
2023/01/23 12:49:38;;;;;;;6.65;3.25;;;;;;;;;;7395131;19;20006;-81
2023/01/23 12:52:13;;;;;;;8.90;4.35;;;;;;;;;;7395339;19;20492;-82
2023/01/23 12:54:45;;;;;;;12.98;4.38;;;;;;;;;;7389480;19;20002;-81
2023/01/23 12:57:11;;;;;;;6.43;3.28;;;;;;;;;;7392323;19;20014;-81
2023/01/23 12:59:46;;;;;;;6.88;2.92;;;;;;;;;;7390412;19;20003;-81
2023/01/23 13:02:31;;;;;;;8.20;3.67;;;;;;;;;;7396038;19;20519;-81
2023/01/23 13:05:20;;;;;;;6.38;3.00;;;;;;;;;;7390710;19;19998;-81
2023/01/23 13:08:02;;;;;;;7.40;2.70;;;;;;;;;;7393540;19;20460;-80
2023/01/23 13:13:20;;;;;;;8.63;3.53;;;;;;;;;;7395133;19;20019;-80
2023/01/23 13:16:09;;;;;;;14.77;4.45;;;;;;;;;;7394438;19;20010;-80
2023/01/23 13:21:59;;;;;;;7.38;3.55;;;;;;;;;;7392392;19;20002;-80
2023/01/23 13:27:50;;;;;;;18.80;5.68;;;;;;;;;;7395142;19;20011;-80
2023/01/23 13:30:21;;;;;;;8.18;4.55;;;;;;;;;;7394452;19;19998;-79
2023/01/23 13:32:48;;;;;;;11.15;4.28;;;;;;;;;;7394712;19;20018;-82
2023/01/23 13:35:38;;;;;;;22.70;5.35;;;;;;;;;;7415762;19;19999;-80
2023/01/23 13:38:21;;;;;;;12.85;4.32;;;;;;;;;;7416812;19;20002;-80
2023/01/23 13:41:10;;;;;;;9.77;5.75;;;;;;;;;;7417504;19;19994;-79
2023/01/23 13:43:53;;;;;;;9.05;3.90;;;;;;;;;;7420133;19;20076;-80
2023/01/23 13:46:52;;;;;;;8.85;3.65;;;;;;;;;;7413657;19;20031;-80
2023/01/23 13:49:52;;;;;;;12.68;5.82;;;;;;;;;;7401833;19;20002;-80
2023/01/23 13:58:00;;;;;;;8.30;4.30;;;;;;;;;;7397264;19;20010;-80
2023/01/23 14:00:26;;;;;;;10.60;5.05;;;;;;;;;;7392796;19;19999;-79
2023/01/23 14:05:43;;;;;;;12.10;4.35;;;;;;;;;;7401612;19;20028;-79
2023/01/23 14:08:19;;;;;;;12.23;5.85;;;;;;;;;;7420046;19;19999;-78
2023/01/23 14:10:48;;;;;;;16.02;5.20;;;;;;;;;;7418184;19;20033;-80
2023/01/23 14:13:21;;;;;;;16.63;5.78;;;;;;;;;;7418568;19;19999;-78
2023/01/23 14:16:10;;;;;;;10.63;5.10;;;;;;;;;;7395133;19;20002;-79
2023/01/23 14:18:50;;;;;;;12.30;5.57;;;;;;;;;;7391741;19;19995;-79
2023/01/23 14:21:23;;;;;;;14.48;5.65;;;;;;;;;;7393097;19;20349;-80
2023/01/23 14:23:51;;;;;;;11.27;5.50;;;;;;;;;;7391821;19;20122;-80
2023/01/23 14:26:19;;;;;;;13.98;5.50;;;;;;;;;;7392077;19;20472;-80
2023/01/23 14:28:56;;;;;;;19.05;5.55;;;;;;;;;;7389124;19;20016;-79
2023/01/23 14:31:26;;;;;;;12.98;5.63;;;;;;;;;;7391476;19;20523;-80
2023/01/23 14:34:06;;;;;;;13.00;5.28;;;;;;;;;;7391148;19;20021;-80
2023/01/23 14:36:34;;;;;;;13.73;6.72;;;;;;;;;;7389303;19;20007;-80
2023/01/23 14:39:00;;;;;;;10.90;5.85;;;;;;;;;;7390601;19;20029;-80
2023/01/23 14:41:30;;;;;;;15.98;6.25;;;;;;;;;;7392092;19;20005;-79
2023/01/23 14:43:57;;;;;;;13.38;5.85;;;;;;;;;;7392136;19;20460;-80
2023/01/23 14:46:36;;;;;;;22.33;6.22;;;;;;;;;;7391759;19;20007;-81
2023/01/23 14:49:04;;;;;;;13.05;5.45;;;;;;;;;;7402839;19;20006;-80
2023/01/23 14:51:29;;;;;;;18.67;5.78;;;;;;;;;;7401884;19;20010;-80
2023/01/23 14:54:04;;;;;;;16.30;5.97;;;;;;;;;;7389830;19;20002;-80
2023/01/23 14:56:35;;;;;;;15.63;5.05;;;;;;;;;;7387471;19;20039;-79
2023/01/23 14:59:05;;;;;;;14.68;5.15;;;;;;;;;;7389198;19;20002;-80
2023/01/23 15:01:31;;;;;;;9.45;4.05;;;;;;;;;;7389262;19;20356;-80
2023/01/23 15:04:05;;;;;;;8.18;3.55;;;;;;;;;;7385998;19;20009;-80
2023/01/23 15:06:33;;;;;;;15.20;5.10;;;;;;;;;;7387553;19;20013;-79
2023/01/23 15:09:13;;;;;;;13.98;5.22;;;;;;;;;;7389476;19;20010;-80
2023/01/23 15:11:38;;;;;;;13.75;5.10;;;;;;;;;;7390277;19;20013;-81
2023/01/23 15:14:04;;;;;;;7.45;3.63;;;;;;;;;;7390061;19;20457;-80
2023/01/23 15:16:36;;;;;;;15.30;4.78;;;;;;;;;;7387943;19;19999;-80
2023/01/23 15:19:05;;;;;;;12.38;4.82;;;;;;;;;;7387776;19;20010;-82